sensor_id;sensor_type;location;lat;lon;timestamp;P1;durP1;ratioP1;P2;durP2;ratioP2
55784;SDS011;41709;52.536;5.688;2023-02-05T00:01:50;25.20;;;7.45;;
55784;SDS011;41709;52.536;5.688;2023-02-05T00:04:15;28.88;;;6.95;;
55784;SDS011;41709;52.536;5.688;2023-02-05T00:06:41;29.15;;;7.35;;
55784;SDS011;41709;52.536;5.688;2023-02-05T00:09:07;27.75;;;6.88;;
55784;SDS011;41709;52.536;5.688;2023-02-05T00:11:33;19.75;;;5.82;;
55784;SDS011;41709;52.536;5.688;2023-02-05T00:13:58;23.60;;;6.40;;
55784;SDS011;41709;52.536;5.688;2023-02-05T00:16:24;32.70;;;6.97;;
55784;SDS011;41709;52.536;5.688;2023-02-05T00:18:50;23.15;;;6.40;;
55784;SDS011;41709;52.536;5.688;2023-02-05T00:21:17;26.92;;;6.13;;
55784;SDS011;41709;52.536;5.688;2023-02-05T00:23:43;23.17;;;6.15;;
55784;SDS011;41709;52.536;5.688;2023-02-05T00:26:09;22.98;;;6.57;;
55784;SDS011;41709;52.536;5.688;2023-02-05T00:28:37;23.92;;;6.80;;
55784;SDS011;41709;52.536;5.688;2023-02-05T00:31:09;26.75;;;7.18;;
55784;SDS011;41709;52.536;5.688;2023-02-05T00:33:37;30.23;;;6.97;;
55784;SDS011;41709;52.536;5.688;2023-02-05T00:36:03;24.02;;;6.85;;
55784;SDS011;41709;52.536;5.688;2023-02-05T00:38:29;21.42;;;6.78;;
55784;SDS011;41709;52.536;5.688;2023-02-05T00:40:55;24.83;;;7.05;;
55784;SDS011;41709;52.536;5.688;2023-02-05T00:43:20;26.05;;;7.22;;
55784;SDS011;41709;52.536;5.688;2023-02-05T00:45:46;28.35;;;7.78;;
55784;SDS011;41709;52.536;5.688;2023-02-05T00:48:12;30.13;;;7.93;;
55784;SDS011;41709;52.536;5.688;2023-02-05T00:50:37;25.52;;;9.38;;
55784;SDS011;41709;52.536;5.688;2023-02-05T00:53:03;27.05;;;8.25;;
55784;SDS011;41709;52.536;5.688;2023-02-05T00:55:28;30.42;;;9.18;;
55784;SDS011;41709;52.536;5.688;2023-02-05T00:57:54;30.67;;;9.88;;
55784;SDS011;41709;52.536;5.688;2023-02-05T01:00:20;33.13;;;9.85;;
55784;SDS011;41709;52.536;5.688;2023-02-05T01:02:46;29.33;;;9.30;;
55784;SDS011;41709;52.536;5.688;2023-02-05T01:05:12;26.50;;;9.27;;
55784;SDS011;41709;52.536;5.688;2023-02-05T01:07:37;33.42;;;10.10;;
55784;SDS011;41709;52.536;5.688;2023-02-05T01:10:03;28.10;;;9.68;;
55784;SDS011;41709;52.536;5.688;2023-02-05T01:12:29;31.27;;;10.32;;
55784;SDS011;41709;52.536;5.688;2023-02-05T01:14:57;27.30;;;10.98;;
55784;SDS011;41709;52.536;5.688;2023-02-05T01:17:23;39.45;;;11.48;;
55784;SDS011;41709;52.536;5.688;2023-02-05T01:19:49;29.20;;;10.98;;
55784;SDS011;41709;52.536;5.688;2023-02-05T01:22:14;35.38;;;13.07;;
55784;SDS011;41709;52.536;5.688;2023-02-05T01:24:40;23.77;;;12.00;;
55784;SDS011;41709;52.536;5.688;2023-02-05T01:27:06;29.17;;;13.10;;
55784;SDS011;41709;52.536;5.688;2023-02-05T01:29:31;28.77;;;12.27;;
55784;SDS011;41709;52.536;5.688;2023-02-05T01:31:57;36.40;;;13.63;;
55784;SDS011;41709;52.536;5.688;2023-02-05T01:34:22;34.30;;;12.75;;
55784;SDS011;41709;52.536;5.688;2023-02-05T01:36:48;31.52;;;12.43;;
55784;SDS011;41709;52.536;5.688;2023-02-05T01:39:14;31.73;;;13.55;;
55784;SDS011;41709;52.536;5.688;2023-02-05T01:41:40;34.72;;;14.10;;
55784;SDS011;41709;52.536;5.688;2023-02-05T01:46:34;33.08;;;14.27;;
55784;SDS011;41709;52.536;5.688;2023-02-05T01:49:01;30.75;;;14.63;;
55784;SDS011;41709;52.536;5.688;2023-02-05T01:51:29;37.58;;;16.15;;
55784;SDS011;41709;52.536;5.688;2023-02-05T01:53:57;35.20;;;14.80;;
55784;SDS011;41709;52.536;5.688;2023-02-05T01:56:25;33.15;;;15.23;;
55784;SDS011;41709;52.536;5.688;2023-02-05T01:59:08;26.85;;;12.95;;
55784;SDS011;41709;52.536;5.688;2023-02-05T02:01:36;30.13;;;13.50;;
55784;SDS011;41709;52.536;5.688;2023-02-05T02:04:03;27.92;;;14.40;;
55784;SDS011;41709;52.536;5.688;2023-02-05T02:06:33;26.10;;;12.80;;
55784;SDS011;41709;52.536;5.688;2023-02-05T02:08:59;21.20;;;12.10;;
55784;SDS011;41709;52.536;5.688;2023-02-05T02:11:26;31.90;;;14.32;;
55784;SDS011;41709;52.536;5.688;2023-02-05T02:13:54;25.90;;;13.80;;
55784;SDS011;41709;52.536;5.688;2023-02-05T02:16:23;24.20;;;13.30;;
55784;SDS011;41709;52.536;5.688;2023-02-05T02:18:51;31.90;;;13.75;;
55784;SDS011;41709;52.536;5.688;2023-02-05T02:26:52;23.77;;;12.77;;
55784;SDS011;41709;52.536;5.688;2023-02-05T02:29:46;27.75;;;13.43;;
55784;SDS011;41709;52.536;5.688;2023-02-05T02:35:10;32.78;;;13.82;;
55784;SDS011;41709;52.536;5.688;2023-02-05T02:37:56;25.08;;;13.38;;
55784;SDS011;41709;52.536;5.688;2023-02-05T02:40:43;31.48;;;14.35;;
55784;SDS011;41709;52.536;5.688;2023-02-05T02:45:52;26.50;;;14.13;;
55784;SDS011;41709;52.536;5.688;2023-02-05T02:48:23;26.35;;;13.65;;
55784;SDS011;41709;52.536;5.688;2023-02-05T02:50:51;26.45;;;14.45;;
55784;SDS011;41709;52.536;5.688;2023-02-05T02:53:20;29.50;;;13.77;;
55784;SDS011;41709;52.536;5.688;2023-02-05T02:55:49;28.17;;;14.48;;
55784;SDS011;41709;52.536;5.688;2023-02-05T02:58:22;26.50;;;13.75;;
55784;SDS011;41709;52.536;5.688;2023-02-05T03:00:52;29.30;;;15.52;;
55784;SDS011;41709;52.536;5.688;2023-02-05T03:03:19;22.58;;;12.50;;
55784;SDS011;41709;52.536;5.688;2023-02-05T03:05:48;24.27;;;12.05;;
55784;SDS011;41709;52.536;5.688;2023-02-05T03:08:18;22.27;;;12.65;;
55784;SDS011;41709;52.536;5.688;2023-02-05T03:10:54;22.30;;;11.88;;
55784;SDS011;41709;52.536;5.688;2023-02-05T03:13:25;21.73;;;9.75;;
55784;SDS011;41709;52.536;5.688;2023-02-05T03:15:51;18.65;;;10.20;;
55784;SDS011;41709;52.536;5.688;2023-02-05T03:18:17;18.42;;;9.27;;
55784;SDS011;41709;52.536;5.688;2023-02-05T03:20:51;24.67;;;8.93;;
55784;SDS011;41709;52.536;5.688;2023-02-05T03:23:21;20.05;;;9.13;;
55784;SDS011;41709;52.536;5.688;2023-02-05T03:25:47;17.23;;;9.15;;
55784;SDS011;41709;52.536;5.688;2023-02-05T03:28:13;14.60;;;7.75;;
55784;SDS011;41709;52.536;5.688;2023-02-05T03:30:47;23.85;;;8.73;;
55784;SDS011;41709;52.536;5.688;2023-02-05T03:33:37;18.00;;;8.18;;
55784;SDS011;41709;52.536;5.688;2023-02-05T03:36:08;16.55;;;9.55;;
55784;SDS011;41709;52.536;5.688;2023-02-05T03:38:52;19.70;;;7.60;;
55784;SDS011;41709;52.536;5.688;2023-02-05T03:44:30;17.15;;;6.97;;
55784;SDS011;41709;52.536;5.688;2023-02-05T03:52:49;12.38;;;5.90;;
55784;SDS011;41709;52.536;5.688;2023-02-05T03:55:22;13.30;;;5.90;;
55784;SDS011;41709;52.536;5.688;2023-02-05T03:57:57;14.25;;;5.13;;
55784;SDS011;41709;52.536;5.688;2023-02-05T04:00:28;9.93;;;5.68;;
55784;SDS011;41709;52.536;5.688;2023-02-05T04:02:54;12.57;;;5.07;;
55784;SDS011;41709;52.536;5.688;2023-02-05T04:05:19;11.20;;;5.60;;
55784;SDS011;41709;52.536;5.688;2023-02-05T04:07:47;10.02;;;4.65;;
55784;SDS011;41709;52.536;5.688;2023-02-05T04:10:14;14.88;;;5.70;;
55784;SDS011;41709;52.536;5.688;2023-02-05T04:12:40;15.93;;;5.68;;
55784;SDS011;41709;52.536;5.688;2023-02-05T04:15:05;14.50;;;6.40;;
55784;SDS011;41709;52.536;5.688;2023-02-05T04:17:33;15.95;;;6.72;;
55784;SDS011;41709;52.536;5.688;2023-02-05T04:19:59;12.20;;;6.22;;
55784;SDS011;41709;52.536;5.688;2023-02-05T04:22:24;20.15;;;6.82;;
55784;SDS011;41709;52.536;5.688;2023-02-05T04:24:50;18.58;;;6.88;;
55784;SDS011;41709;52.536;5.688;2023-02-05T04:27:16;19.90;;;7.03;;
55784;SDS011;41709;52.536;5.688;2023-02-05T04:29:41;13.45;;;7.10;;
55784;SDS011;41709;52.536;5.688;2023-02-05T04:32:07;14.40;;;7.10;;
55784;SDS011;41709;52.536;5.688;2023-02-05T04:34:32;19.23;;;7.00;;
55784;SDS011;41709;52.536;5.688;2023-02-05T04:36:58;13.00;;;6.88;;
55784;SDS011;41709;52.536;5.688;2023-02-05T04:39:24;16.77;;;7.57;;
55784;SDS011;41709;52.536;5.688;2023-02-05T04:41:49;15.40;;;6.63;;
55784;SDS011;41709;52.536;5.688;2023-02-05T04:44:15;10.40;;;5.95;;
55784;SDS011;41709;52.536;5.688;2023-02-05T04:46:40;13.55;;;6.72;;
55784;SDS011;41709;52.536;5.688;2023-02-05T04:49:06;18.77;;;7.53;;
55784;SDS011;41709;52.536;5.688;2023-02-05T04:51:32;12.70;;;7.13;;
55784;SDS011;41709;52.536;5.688;2023-02-05T04:53:57;15.57;;;6.80;;
55784;SDS011;41709;52.536;5.688;2023-02-05T04:56:23;13.68;;;7.10;;
55784;SDS011;41709;52.536;5.688;2023-02-05T04:58:48;14.57;;;7.05;;
55784;SDS011;41709;52.536;5.688;2023-02-05T05:01:18;13.90;;;6.82;;
55784;SDS011;41709;52.536;5.688;2023-02-05T05:03:45;16.80;;;7.43;;
55784;SDS011;41709;52.536;5.688;2023-02-05T05:06:11;17.23;;;5.47;;
55784;SDS011;41709;52.536;5.688;2023-02-05T05:08:37;7.15;;;4.57;;
55784;SDS011;41709;52.536;5.688;2023-02-05T05:11:06;6.55;;;4.55;;
55784;SDS011;41709;52.536;5.688;2023-02-05T05:13:34;11.77;;;4.93;;
55784;SDS011;41709;52.536;5.688;2023-02-05T05:16:00;7.22;;;2.60;;
55784;SDS011;41709;52.536;5.688;2023-02-05T05:18:26;11.63;;;1.90;;
55784;SDS011;41709;52.536;5.688;2023-02-05T05:20:52;14.98;;;1.88;;
55784;SDS011;41709;52.536;5.688;2023-02-05T05:23:18;11.73;;;1.75;;
55784;SDS011;41709;52.536;5.688;2023-02-05T05:25:44;11.60;;;1.35;;
55784;SDS011;41709;52.536;5.688;2023-02-05T05:28:11;9.25;;;0.98;;
55784;SDS011;41709;52.536;5.688;2023-02-05T05:30:38;8.57;;;1.05;;
55784;SDS011;41709;52.536;5.688;2023-02-05T05:33:04;11.40;;;2.08;;
55784;SDS011;41709;52.536;5.688;2023-02-05T05:35:30;9.18;;;1.08;;
55784;SDS011;41709;52.536;5.688;2023-02-05T05:37:56;9.23;;;1.08;;
55784;SDS011;41709;52.536;5.688;2023-02-05T05:40:22;10.88;;;0.90;;
55784;SDS011;41709;52.536;5.688;2023-02-05T05:43:10;9.30;;;0.90;;
55784;SDS011;41709;52.536;5.688;2023-02-05T05:45:55;9.82;;;1.02;;
55784;SDS011;41709;52.536;5.688;2023-02-05T05:48:21;12.93;;;2.08;;
55784;SDS011;41709;52.536;5.688;2023-02-05T05:50:47;13.82;;;1.58;;
55784;SDS011;41709;52.536;5.688;2023-02-05T05:53:12;11.90;;;1.40;;
55784;SDS011;41709;52.536;5.688;2023-02-05T05:55:38;14.35;;;1.60;;
55784;SDS011;41709;52.536;5.688;2023-02-05T05:58:03;11.60;;;1.30;;
55784;SDS011;41709;52.536;5.688;2023-02-05T06:00:29;9.50;;;1.10;;
55784;SDS011;41709;52.536;5.688;2023-02-05T06:02:55;14.10;;;1.55;;
55784;SDS011;41709;52.536;5.688;2023-02-05T06:05:20;8.82;;;1.10;;
55784;SDS011;41709;52.536;5.688;2023-02-05T06:07:46;6.40;;;0.80;;
55784;SDS011;41709;52.536;5.688;2023-02-05T06:10:11;9.60;;;1.27;;
55784;SDS011;41709;52.536;5.688;2023-02-05T06:12:37;5.53;;;0.85;;
55784;SDS011;41709;52.536;5.688;2023-02-05T06:15:02;14.27;;;1.20;;
55784;SDS011;41709;52.536;5.688;2023-02-05T06:17:29;7.47;;;0.85;;
55784;SDS011;41709;52.536;5.688;2023-02-05T06:19:54;7.72;;;0.88;;
55784;SDS011;41709;52.536;5.688;2023-02-05T06:22:20;10.00;;;1.05;;
55784;SDS011;41709;52.536;5.688;2023-02-05T06:24:45;6.93;;;0.82;;
55784;SDS011;41709;52.536;5.688;2023-02-05T06:27:11;8.93;;;1.73;;
55784;SDS011;41709;52.536;5.688;2023-02-05T06:29:36;6.40;;;1.00;;
55784;SDS011;41709;52.536;5.688;2023-02-05T06:32:02;8.32;;;1.48;;
55784;SDS011;41709;52.536;5.688;2023-02-05T06:34:27;8.90;;;1.02;;
55784;SDS011;41709;52.536;5.688;2023-02-05T06:36:53;6.82;;;0.80;;
55784;SDS011;41709;52.536;5.688;2023-02-05T06:39:19;14.98;;;1.20;;
55784;SDS011;41709;52.536;5.688;2023-02-05T06:41:45;13.43;;;1.10;;
55784;SDS011;41709;52.536;5.688;2023-02-05T06:44:10;11.05;;;1.10;;
55784;SDS011;41709;52.536;5.688;2023-02-05T06:46:36;11.13;;;1.10;;
55784;SDS011;41709;52.536;5.688;2023-02-05T06:49:02;9.45;;;1.13;;
55784;SDS011;41709;52.536;5.688;2023-02-05T06:51:27;12.98;;;1.23;;
55784;SDS011;41709;52.536;5.688;2023-02-05T06:53:53;9.23;;;1.10;;
55784;SDS011;41709;52.536;5.688;2023-02-05T06:56:21;18.77;;;3.28;;
55784;SDS011;41709;52.536;5.688;2023-02-05T06:58:47;10.80;;;1.20;;
55784;SDS011;41709;52.536;5.688;2023-02-05T07:01:13;15.57;;;2.30;;
55784;SDS011;41709;52.536;5.688;2023-02-05T07:03:38;11.95;;;1.23;;
55784;SDS011;41709;52.536;5.688;2023-02-05T07:06:04;13.48;;;2.05;;
55784;SDS011;41709;52.536;5.688;2023-02-05T07:08:30;13.57;;;1.40;;
55784;SDS011;41709;52.536;5.688;2023-02-05T07:10:56;13.32;;;1.80;;
55784;SDS011;41709;52.536;5.688;2023-02-05T07:13:22;11.35;;;1.67;;
55784;SDS011;41709;52.536;5.688;2023-02-05T07:15:48;17.50;;;4.13;;
55784;SDS011;41709;52.536;5.688;2023-02-05T07:18:14;13.75;;;1.90;;
55784;SDS011;41709;52.536;5.688;2023-02-05T07:20:39;14.77;;;1.48;;
55784;SDS011;41709;52.536;5.688;2023-02-05T07:23:05;15.63;;;2.28;;
55784;SDS011;41709;52.536;5.688;2023-02-05T07:25:32;15.82;;;1.42;;
55784;SDS011;41709;52.536;5.688;2023-02-05T07:28:02;22.40;;;2.88;;
55784;SDS011;41709;52.536;5.688;2023-02-05T07:30:28;18.95;;;1.88;;
55784;SDS011;41709;52.536;5.688;2023-02-05T07:32:54;17.13;;;2.53;;
55784;SDS011;41709;52.536;5.688;2023-02-05T07:35:19;24.20;;;2.10;;
55784;SDS011;41709;52.536;5.688;2023-02-05T07:37:45;15.40;;;2.75;;
55784;SDS011;41709;52.536;5.688;2023-02-05T07:40:10;18.75;;;3.17;;
55784;SDS011;41709;52.536;5.688;2023-02-05T07:42:36;11.13;;;1.73;;
55784;SDS011;41709;52.536;5.688;2023-02-05T07:45:02;23.77;;;2.42;;
55784;SDS011;41709;52.536;5.688;2023-02-05T07:47:28;13.80;;;2.78;;
55784;SDS011;41709;52.536;5.688;2023-02-05T07:49:54;19.65;;;3.45;;
55784;SDS011;41709;52.536;5.688;2023-02-05T07:52:20;19.45;;;2.22;;
55784;SDS011;41709;52.536;5.688;2023-02-05T07:54:46;31.65;;;2.78;;
55784;SDS011;41709;52.536;5.688;2023-02-05T07:57:11;20.38;;;2.53;;
55784;SDS011;41709;52.536;5.688;2023-02-05T07:59:37;19.40;;;2.70;;
55784;SDS011;41709;52.536;5.688;2023-02-05T08:02:02;14.95;;;2.20;;
55784;SDS011;41709;52.536;5.688;2023-02-05T08:04:29;17.73;;;2.63;;
55784;SDS011;41709;52.536;5.688;2023-02-05T08:06:55;17.75;;;2.35;;
55784;SDS011;41709;52.536;5.688;2023-02-05T08:09:20;22.20;;;2.92;;
55784;SDS011;41709;52.536;5.688;2023-02-05T08:11:46;21.13;;;2.20;;
55784;SDS011;41709;52.536;5.688;2023-02-05T08:14:11;15.73;;;2.40;;
55784;SDS011;41709;52.536;5.688;2023-02-05T08:16:37;23.20;;;2.47;;
55784;SDS011;41709;52.536;5.688;2023-02-05T08:19:02;17.98;;;3.25;;
55784;SDS011;41709;52.536;5.688;2023-02-05T08:21:28;21.90;;;2.65;;
55784;SDS011;41709;52.536;5.688;2023-02-05T08:23:53;25.70;;;2.97;;
55784;SDS011;41709;52.536;5.688;2023-02-05T08:26:21;28.17;;;3.00;;
55784;SDS011;41709;52.536;5.688;2023-02-05T08:28:47;24.00;;;2.67;;
55784;SDS011;41709;52.536;5.688;2023-02-05T08:31:13;21.48;;;2.65;;
55784;SDS011;41709;52.536;5.688;2023-02-05T08:33:42;25.15;;;2.50;;
55784;SDS011;41709;52.536;5.688;2023-02-05T08:36:08;22.55;;;3.00;;
55784;SDS011;41709;52.536;5.688;2023-02-05T08:38:34;23.08;;;3.10;;
55784;SDS011;41709;52.536;5.688;2023-02-05T08:41:06;25.50;;;3.47;;
55784;SDS011;41709;52.536;5.688;2023-02-05T08:43:37;31.58;;;3.28;;
55784;SDS011;41709;52.536;5.688;2023-02-05T08:46:10;25.48;;;3.85;;
55784;SDS011;41709;52.536;5.688;2023-02-05T08:48:38;25.88;;;2.78;;
55784;SDS011;41709;52.536;5.688;2023-02-05T08:51:03;36.63;;;5.38;;
55784;SDS011;41709;52.536;5.688;2023-02-05T08:53:30;24.75;;;3.55;;
55784;SDS011;41709;52.536;5.688;2023-02-05T08:55:56;23.13;;;3.35;;
55784;SDS011;41709;52.536;5.688;2023-02-05T08:58:23;24.50;;;3.53;;
55784;SDS011;41709;52.536;5.688;2023-02-05T09:00:49;31.73;;;4.15;;
55784;SDS011;41709;52.536;5.688;2023-02-05T09:03:15;39.88;;;5.32;;
55784;SDS011;41709;52.536;5.688;2023-02-05T09:05:40;23.95;;;2.95;;
55784;SDS011;41709;52.536;5.688;2023-02-05T09:08:06;23.23;;;3.22;;
55784;SDS011;41709;52.536;5.688;2023-02-05T09:10:32;31.70;;;5.55;;
55784;SDS011;41709;52.536;5.688;2023-02-05T09:12:57;19.40;;;3.40;;
55784;SDS011;41709;52.536;5.688;2023-02-05T09:15:23;24.20;;;3.90;;
55784;SDS011;41709;52.536;5.688;2023-02-05T09:17:49;19.65;;;3.00;;
55784;SDS011;41709;52.536;5.688;2023-02-05T09:20:14;24.38;;;3.58;;
55784;SDS011;41709;52.536;5.688;2023-02-05T09:22:40;24.98;;;3.15;;
55784;SDS011;41709;52.536;5.688;2023-02-05T09:25:06;26.45;;;3.47;;
55784;SDS011;41709;52.536;5.688;2023-02-05T09:27:32;30.13;;;3.70;;
55784;SDS011;41709;52.536;5.688;2023-02-05T09:29:58;22.20;;;3.72;;
55784;SDS011;41709;52.536;5.688;2023-02-05T09:32:23;25.65;;;4.43;;
55784;SDS011;41709;52.536;5.688;2023-02-05T09:34:49;19.52;;;2.70;;
55784;SDS011;41709;52.536;5.688;2023-02-05T09:37:15;15.48;;;2.72;;
55784;SDS011;41709;52.536;5.688;2023-02-05T09:39:41;20.73;;;2.97;;
55784;SDS011;41709;52.536;5.688;2023-02-05T09:42:09;19.52;;;2.97;;
55784;SDS011;41709;52.536;5.688;2023-02-05T09:47:36;23.40;;;3.10;;
55784;SDS011;41709;52.536;5.688;2023-02-05T09:52:41;26.13;;;2.85;;
55784;SDS011;41709;52.536;5.688;2023-02-05T09:57:52;25.77;;;3.13;;
55784;SDS011;41709;52.536;5.688;2023-02-05T10:02:54;27.98;;;4.07;;
55784;SDS011;41709;52.536;5.688;2023-02-05T10:05:31;27.55;;;3.65;;
55784;SDS011;41709;52.536;5.688;2023-02-05T10:13:11;25.42;;;3.28;;
55784;SDS011;41709;52.536;5.688;2023-02-05T10:27:19;38.70;;;5.75;;
55784;SDS011;41709;52.536;5.688;2023-02-05T10:32:38;29.77;;;4.35;;
55784;SDS011;41709;52.536;5.688;2023-02-05T10:35:46;32.22;;;3.53;;
55784;SDS011;41709;52.536;5.688;2023-02-05T10:38:19;34.57;;;5.67;;
55784;SDS011;41709;52.536;5.688;2023-02-05T10:40:52;28.67;;;5.07;;
55784;SDS011;41709;52.536;5.688;2023-02-05T10:43:26;32.72;;;3.92;;
55784;SDS011;41709;52.536;5.688;2023-02-05T10:46:14;29.17;;;3.97;;
55784;SDS011;41709;52.536;5.688;2023-02-05T10:48:45;29.20;;;4.38;;
55784;SDS011;41709;52.536;5.688;2023-02-05T10:51:28;25.83;;;3.00;;
55784;SDS011;41709;52.536;5.688;2023-02-05T10:53:59;25.10;;;3.25;;
55784;SDS011;41709;52.536;5.688;2023-02-05T10:56:25;24.20;;;3.80;;
55784;SDS011;41709;52.536;5.688;2023-02-05T11:01:22;35.75;;;4.00;;
55784;SDS011;41709;52.536;5.688;2023-02-05T11:04:04;31.10;;;4.53;;
55784;SDS011;41709;52.536;5.688;2023-02-05T11:06:42;22.38;;;4.05;;
55784;SDS011;41709;52.536;5.688;2023-02-05T11:11:50;26.00;;;4.43;;
55784;SDS011;41709;52.536;5.688;2023-02-05T11:14:31;24.65;;;3.60;;
55784;SDS011;41709;52.536;5.688;2023-02-05T11:17:00;21.08;;;3.47;;
55784;SDS011;41709;52.536;5.688;2023-02-05T11:19:32;30.08;;;5.90;;
55784;SDS011;41709;52.536;5.688;2023-02-05T11:22:01;21.45;;;3.55;;
55784;SDS011;41709;52.536;5.688;2023-02-05T11:24:30;25.30;;;3.40;;
55784;SDS011;41709;52.536;5.688;2023-02-05T11:29:39;26.05;;;3.13;;
55784;SDS011;41709;52.536;5.688;2023-02-05T11:32:16;24.77;;;3.00;;
55784;SDS011;41709;52.536;5.688;2023-02-05T11:35:12;26.25;;;4.10;;
55784;SDS011;41709;52.536;5.688;2023-02-05T11:37:44;33.78;;;4.10;;
55784;SDS011;41709;52.536;5.688;2023-02-05T11:40:22;26.45;;;5.15;;
55784;SDS011;41709;52.536;5.688;2023-02-05T11:43:14;21.23;;;3.38;;
55784;SDS011;41709;52.536;5.688;2023-02-05T11:45:52;26.20;;;4.50;;
55784;SDS011;41709;52.536;5.688;2023-02-05T11:48:31;22.58;;;2.90;;
55784;SDS011;41709;52.536;5.688;2023-02-05T11:51:26;26.75;;;3.53;;
55784;SDS011;41709;52.536;5.688;2023-02-05T11:57:37;28.85;;;3.85;;
55784;SDS011;41709;52.536;5.688;2023-02-05T12:02:45;24.95;;;4.60;;
55784;SDS011;41709;52.536;5.688;2023-02-05T12:05:18;26.92;;;4.20;;
55784;SDS011;41709;52.536;5.688;2023-02-05T12:07:57;29.13;;;3.92;;
55784;SDS011;41709;52.536;5.688;2023-02-05T12:10:39;23.95;;;3.85;;
55784;SDS011;41709;52.536;5.688;2023-02-05T12:21:56;22.70;;;3.00;;
55784;SDS011;41709;52.536;5.688;2023-02-05T12:25:15;20.92;;;2.35;;
55784;SDS011;41709;52.536;5.688;2023-02-05T12:31:09;29.60;;;5.82;;
55784;SDS011;41709;52.536;5.688;2023-02-05T12:37:11;23.23;;;3.83;;
55784;SDS011;41709;52.536;5.688;2023-02-05T12:39:49;23.38;;;2.47;;
55784;SDS011;41709;52.536;5.688;2023-02-05T12:42:36;15.60;;;2.63;;
55784;SDS011;41709;52.536;5.688;2023-02-05T12:45:32;19.60;;;2.80;;
55784;SDS011;41709;52.536;5.688;2023-02-05T12:50:52;18.27;;;2.85;;
55784;SDS011;41709;52.536;5.688;2023-02-05T12:58:42;17.60;;;2.85;;
55784;SDS011;41709;52.536;5.688;2023-02-05T13:01:13;31.95;;;4.82;;
55784;SDS011;41709;52.536;5.688;2023-02-05T13:03:47;34.55;;;5.15;;
55784;SDS011;41709;52.536;5.688;2023-02-05T13:08:57;27.90;;;3.70;;
55784;SDS011;41709;52.536;5.688;2023-02-05T13:11:33;27.35;;;3.25;;
55784;SDS011;41709;52.536;5.688;2023-02-05T13:17:37;20.45;;;2.45;;
55784;SDS011;41709;52.536;5.688;2023-02-05T13:19:36;29.52;;;3.35;;
55784;SDS011;41709;52.536;5.688;2023-02-05T13:22:16;39.60;;;4.45;;
55784;SDS011;41709;52.536;5.688;2023-02-05T13:25:15;19.90;;;2.88;;
55784;SDS011;41709;52.536;5.688;2023-02-05T13:27:56;21.58;;;3.13;;
55784;SDS011;41709;52.536;5.688;2023-02-05T13:30:44;29.05;;;4.03;;
55784;SDS011;41709;52.536;5.688;2023-02-05T13:33:14;22.63;;;2.90;;
55784;SDS011;41709;52.536;5.688;2023-02-05T13:35:42;26.65;;;4.22;;
55784;SDS011;41709;52.536;5.688;2023-02-05T13:58:24;22.88;;;2.88;;
55784;SDS011;41709;52.536;5.688;2023-02-05T14:01:01;28.13;;;3.22;;
55784;SDS011;41709;52.536;5.688;2023-02-05T14:03:39;15.48;;;1.98;;
55784;SDS011;41709;52.536;5.688;2023-02-05T14:06:37;21.73;;;3.60;;
55784;SDS011;41709;52.536;5.688;2023-02-05T14:09:05;26.27;;;3.60;;
55784;SDS011;41709;52.536;5.688;2023-02-05T14:11:48;21.63;;;2.85;;
55784;SDS011;41709;52.536;5.688;2023-02-05T14:14:20;28.58;;;3.47;;
55784;SDS011;41709;52.536;5.688;2023-02-05T14:16:46;21.45;;;3.10;;
55784;SDS011;41709;52.536;5.688;2023-02-05T14:19:16;22.02;;;3.08;;
55784;SDS011;41709;52.536;5.688;2023-02-05T14:21:55;17.25;;;3.03;;
55784;SDS011;41709;52.536;5.688;2023-02-05T14:26:55;23.00;;;3.03;;
55784;SDS011;41709;52.536;5.688;2023-02-05T14:29:46;37.28;;;6.40;;
55784;SDS011;41709;52.536;5.688;2023-02-05T14:34:57;29.05;;;3.42;;
55784;SDS011;41709;52.536;5.688;2023-02-05T14:37:44;27.48;;;4.15;;
55784;SDS011;41709;52.536;5.688;2023-02-05T14:42:47;29.98;;;3.58;;
55784;SDS011;41709;52.536;5.688;2023-02-05T14:47:43;21.80;;;2.85;;
55784;SDS011;41709;52.536;5.688;2023-02-05T14:50:10;25.17;;;4.15;;
55784;SDS011;41709;52.536;5.688;2023-02-05T14:53:02;26.27;;;3.13;;
55784;SDS011;41709;52.536;5.688;2023-02-05T14:55:34;30.40;;;3.92;;
55784;SDS011;41709;52.536;5.688;2023-02-05T14:58:05;32.58;;;3.75;;
55784;SDS011;41709;52.536;5.688;2023-02-05T15:00:36;34.20;;;3.50;;
55784;SDS011;41709;52.536;5.688;2023-02-05T15:13:33;31.15;;;3.70;;
55784;SDS011;41709;52.536;5.688;2023-02-05T15:18:45;31.48;;;4.20;;
55784;SDS011;41709;52.536;5.688;2023-02-05T15:21:29;32.20;;;3.90;;
55784;SDS011;41709;52.536;5.688;2023-02-05T15:24:05;28.40;;;5.53;;
55784;SDS011;41709;52.536;5.688;2023-02-05T15:26:45;31.10;;;4.00;;
55784;SDS011;41709;52.536;5.688;2023-02-05T15:29:26;28.63;;;3.72;;
55784;SDS011;41709;52.536;5.688;2023-02-05T15:32:00;24.13;;;4.35;;
55784;SDS011;41709;52.536;5.688;2023-02-05T15:34:36;31.27;;;5.28;;
55784;SDS011;41709;52.536;5.688;2023-02-05T15:42:48;29.70;;;3.95;;
55784;SDS011;41709;52.536;5.688;2023-02-05T15:45:28;28.63;;;4.20;;
55784;SDS011;41709;52.536;5.688;2023-02-05T15:47:58;28.65;;;4.38;;
55784;SDS011;41709;52.536;5.688;2023-02-05T15:50:30;37.65;;;4.32;;
55784;SDS011;41709;52.536;5.688;2023-02-05T15:52:58;28.25;;;4.22;;
55784;SDS011;41709;52.536;5.688;2023-02-05T15:55:24;34.10;;;4.15;;
55784;SDS011;41709;52.536;5.688;2023-02-05T15:57:54;34.85;;;4.25;;
55784;SDS011;41709;52.536;5.688;2023-02-05T16:00:28;35.80;;;4.47;;
55784;SDS011;41709;52.536;5.688;2023-02-05T16:02:55;29.60;;;3.05;;
55784;SDS011;41709;52.536;5.688;2023-02-05T16:05:26;29.50;;;4.57;;
55784;SDS011;41709;52.536;5.688;2023-02-05T16:07:53;33.53;;;4.68;;
55784;SDS011;41709;52.536;5.688;2023-02-05T16:10:31;32.25;;;3.67;;
55784;SDS011;41709;52.536;5.688;2023-02-05T16:12:59;26.65;;;3.65;;
55784;SDS011;41709;52.536;5.688;2023-02-05T16:15:26;31.27;;;4.70;;
55784;SDS011;41709;52.536;5.688;2023-02-05T16:18:02;36.70;;;5.50;;
55784;SDS011;41709;52.536;5.688;2023-02-05T16:20:33;31.42;;;4.10;;
55784;SDS011;41709;52.536;5.688;2023-02-05T16:23:03;35.72;;;4.60;;
55784;SDS011;41709;52.536;5.688;2023-02-05T16:25:33;39.50;;;5.88;;
55784;SDS011;41709;52.536;5.688;2023-02-05T16:28:18;25.02;;;4.05;;
55784;SDS011;41709;52.536;5.688;2023-02-05T16:30:44;35.47;;;5.05;;
55784;SDS011;41709;52.536;5.688;2023-02-05T16:33:54;33.05;;;4.40;;
55784;SDS011;41709;52.536;5.688;2023-02-05T16:36:04;37.65;;;6.00;;
55784;SDS011;41709;52.536;5.688;2023-02-05T16:38:39;28.05;;;4.28;;
55784;SDS011;41709;52.536;5.688;2023-02-05T16:41:59;28.75;;;4.03;;
55784;SDS011;41709;52.536;5.688;2023-02-05T16:43:51;44.00;;;6.88;;
55784;SDS011;41709;52.536;5.688;2023-02-05T16:46:19;28.85;;;4.35;;
55784;SDS011;41709;52.536;5.688;2023-02-05T16:53:51;45.50;;;5.30;;
55784;SDS011;41709;52.536;5.688;2023-02-05T16:56:21;37.20;;;4.60;;
55784;SDS011;41709;52.536;5.688;2023-02-05T16:58:50;29.50;;;3.92;;
55784;SDS011;41709;52.536;5.688;2023-02-05T17:01:28;30.88;;;3.97;;
55784;SDS011;41709;52.536;5.688;2023-02-05T17:04:01;34.28;;;4.38;;
55784;SDS011;41709;52.536;5.688;2023-02-05T17:06:31;39.88;;;4.35;;
55784;SDS011;41709;52.536;5.688;2023-02-05T17:08:58;36.25;;;5.35;;
55784;SDS011;41709;52.536;5.688;2023-02-05T17:11:32;23.85;;;3.80;;
55784;SDS011;41709;52.536;5.688;2023-02-05T17:17:21;27.17;;;4.22;;
55784;SDS011;41709;52.536;5.688;2023-02-05T17:19:40;26.10;;;3.65;;
55784;SDS011;41709;52.536;5.688;2023-02-05T17:24:38;34.80;;;4.50;;
55784;SDS011;41709;52.536;5.688;2023-02-05T17:27:20;41.40;;;6.10;;